Terminal Aerodrome Forecast
Issued by NWS

Home | Current Version | Previous Version | Text Only | Print | Product List | Glossary Off
Versions: 1 2 3 4 5 6 7 8 9 10 11 12

892
FTUS43 KMPX 301730
TAFAXN
TAF
KAXN 301730Z 3018/0118 07018G25KT P6SM SCT050 BKN250
     FM010100 06009KT P6SM SCT250=

USA.gov is the U.S. government's official web portal to all federal, state and local government web resources and services.